Terminal Aerodrome Forecast
Issued by NWS Grand Forks, ND

Home | Current Version | Previous Version | Graphics & Text | Print | Product List | Glossary On
Versions: 1 2 3 4 5 6 7 8 9 10 11 12 13 14 15 16 17 18 19
854
FTUS43 KFGF 100532
TAFFAR
TAF
KFAR 100532Z 1006/1106 32010KT P6SM SCT250
     FM101300 32008KT P6SM BKN100
     FM101500 31006KT P6SM BKN025
     FM102300 23006KT P6SM BKN020
     FM110000 19007KT P6SM OVC020
     FM110400 20009KT P6SM BKN035=

USA.gov is the U.S. government's official web portal to all federal, state and local government web resources and services.